WXM80 ListenWXM80 Stop

You find our weather info also at:

UK Metoffice

WeatherCloud

Weather Underground

Northeastern Weather Network

AWEKAS

Citizen Weather Observer Program (CWOP)

HAMweather, WeatherForYou, PWS Weather


Weather Underground History page Text

Daily Summary for April 11, 2017 Units:  English    Metric   Both
« Previous Day
Next Day »
Daily Weekly Monthly Yearly Custom
  High: Low: Average:
Temperature: 80.3 °F 51.4 °F 62.8 °F
Dew Point: 57.7 °F 46.8 °F 51.8 °F
Humidity: 87 % 43 % 69 %
Wind Speed: 9.0 mph 0.0 mph 2.8 mph
Wind Gust: 14.0 mph - -
Wind:- - South
Pressure: 30.12 in 30.03 in -
Precipitation: 0.00 in    
Historical Graphs
 
 
Tabular Data for April 11, 2017
Time Temperature Dew Point Pressure Wind Wind Speed Wind Gust Humidity Rainfall Rate (Hourly)
00:00 58.1 °F 47.2 °F 30.09 in SW 7.2 mph 8.1 mph 67 % 0.00 in
00:05 58.2 °F 47.3 °F 30.09 in SSW 4.3 mph 8.0 mph 67 % 0.00 in
00:15 58.3 °F 47.4 °F 30.09 in SW 2.3 mph 4.6 mph 67 % 0.00 in
00:20 58.4 °F 47.5 °F 30.09 in SSW 3.6 mph 9.2 mph 67 % 0.00 in
00:25 58.3 °F 47.4 °F 30.10 in SW 6.2 mph 10.4 mph 67 % 0.00 in
00:30 58.3 °F 47.4 °F 30.10 in South 2.2 mph 5.8 mph 67 % 0.00 in
00:40 58.2 °F 47.7 °F 30.09 in SSW 2.9 mph 5.8 mph 68 % 0.00 in
00:46 58.1 °F 47.6 °F 30.09 in SW 1.9 mph 4.0 mph 68 % 0.00 in
00:51 58.0 °F 47.5 °F 30.09 in SSW 3.9 mph 6.9 mph 68 % 0.00 in
00:56 57.9 °F 47.4 °F 30.09 in SSW 1.4 mph 7.0 mph 68 % 0.00 in
01:01 57.7 °F 47.6 °F 30.09 in SSW 2.5 mph 4.6 mph 69 % 0.00 in
01:06 57.5 °F 47.4 °F 30.09 in WSW 4.7 mph 8.1 mph 69 % 0.00 in
01:11 57.3 °F 47.6 °F 30.09 in WSW 2.0 mph 6.9 mph 70 % 0.00 in
01:16 57.2 °F 47.5 °F 30.09 in WSW 2.6 mph 6.0 mph 70 % 0.00 in
01:21 57.1 °F 47.8 °F 30.09 in SW 3.1 mph 5.8 mph 71 % 0.00 in
01:26 57.0 °F 47.7 °F 30.09 in SW 2.6 mph 4.6 mph 71 % 0.00 in
01:31 56.9 °F 47.6 °F 30.09 in WSW 2.6 mph 5.8 mph 71 % 0.00 in
01:36 56.8 °F 47.9 °F 30.09 in SW 3.3 mph 6.9 mph 72 % 0.00 in
01:41 56.7 °F 47.8 °F 30.09 in SSW 2.9 mph 6.0 mph 72 % 0.00 in
01:46 56.6 °F 47.7 °F 30.09 in WSW 1.8 mph 5.8 mph 72 % 0.00 in
01:51 56.5 °F 47.6 °F 30.09 in SW 2.6 mph 3.5 mph 72 % 0.00 in
01:56 56.4 °F 47.9 °F 30.09 in SSW 3.1 mph 5.8 mph 73 % 0.00 in
02:01 56.2 °F 47.7 °F 30.08 in SW 2.9 mph 6.9 mph 73 % 0.00 in
02:06 56.1 °F 47.6 °F 30.09 in SSW 4.3 mph 6.9 mph 73 % 0.00 in
02:11 56.0 °F 47.8 °F 30.09 in SSW 2.4 mph 4.6 mph 74 % 0.00 in
02:16 55.8 °F 47.6 °F 30.08 in SSW 2.4 mph 4.0 mph 74 % 0.00 in
02:21 55.7 °F 47.9 °F 30.08 in SW 1.9 mph 5.8 mph 75 % 0.00 in
02:26 55.5 °F 47.7 °F 30.08 in SSW 3.4 mph 3.5 mph 75 % 0.00 in
02:31 55.3 °F 47.9 °F 30.08 in SSW 2.2 mph 4.0 mph 76 % 0.00 in
02:36 55.1 °F 47.7 °F 30.08 in SSW 4.3 mph 6.9 mph 76 % 0.00 in
02:41 54.8 °F 47.7 °F 30.08 in SSW 2.9 mph 4.0 mph 77 % 0.00 in
02:46 54.7 °F 47.6 °F 30.07 in South 4.7 mph 6.9 mph 77 % 0.00 in
02:51 54.5 °F 47.4 °F 30.07 in SSW 2.3 mph 3.5 mph 77 % 0.00 in
02:56 54.4 °F 47.7 °F 30.07 in SSW 2.8 mph 4.6 mph 78 % 0.00 in
03:01 54.3 °F 47.6 °F 30.07 in SSW 3.4 mph 4.6 mph 78 % 0.00 in
03:06 54.2 °F 47.5 °F 30.07 in SW 3.5 mph 8.1 mph 78 % 0.00 in
03:11 54.1 °F 47.4 °F 30.07 in SSW 3.3 mph 4.6 mph 78 % 0.00 in
03:16 54.0 °F 47.6 °F 30.07 in SW 2.0 mph 3.5 mph 79 % 0.00 in
03:21 53.9 °F 47.5 °F 30.07 in SSW 1.8 mph 4.0 mph 79 % 0.00 in
03:27 53.8 °F 47.4 °F 30.07 in SSW 3.1 mph 4.6 mph 79 % 0.00 in
03:32 53.7 °F 47.3 °F 30.07 in SSW 3.7 mph 5.8 mph 79 % 0.00 in
03:37 53.6 °F 47.6 °F 30.06 in SSW 4.7 mph 6.9 mph 80 % 0.00 in
03:42 53.5 °F 47.5 °F 30.06 in SSW 2.2 mph 4.6 mph 80 % 0.00 in
03:47 53.4 °F 47.4 °F 30.06 in SSW 1.5 mph 4.0 mph 80 % 0.00 in
03:52 53.3 °F 47.3 °F 30.06 in SSW 1.7 mph 3.5 mph 80 % 0.00 in
03:57 53.2 °F 47.5 °F 30.06 in SW 2.7 mph 4.6 mph 81 % 0.00 in
04:02 53.1 °F 47.4 °F 30.07 in SW 3.0 mph 4.0 mph 81 % 0.00 in
04:07 53.0 °F 47.3 °F 30.07 in SW 0.9 mph 3.5 mph 81 % 0.00 in
04:12 52.9 °F 47.2 °F 30.07 in Calm     81 % 0.00 in
04:17 52.8 °F 47.1 °F 30.07 in SW 0.1 mph 3.5 mph 81 % 0.00 in
04:22 52.7 °F 47.4 °F 30.07 in SW 0.7 mph 2.3 mph 82 % 0.00 in
04:27 52.6 °F 47.3 °F 30.07 in SW 2.3 mph 3.5 mph 82 % 0.00 in
04:32 52.5 °F 47.2 °F 30.07 in South 3.4 mph 4.0 mph 82 % 0.00 in
04:37 52.4 °F 47.4 °F 30.07 in South 3.2 mph 4.0 mph 83 % 0.00 in
04:42 52.3 °F 47.3 °F 30.07 in SSW 2.3 mph 3.5 mph 83 % 0.00 in
04:47 52.2 °F 47.5 °F 30.07 in SW 0.8 mph 3.5 mph 84 % 0.00 in
04:52 52.1 °F 47.4 °F 30.07 in SSW 0.9 mph 3.5 mph 84 % 0.00 in
04:57 52.0 °F 47.3 °F 30.07 in SSW 1.2 mph 2.3 mph 84 % 0.00 in
05:02 51.9 °F 47.2 °F 30.07 in SSW 1.5 mph 2.3 mph 84 % 0.00 in
05:07 51.9 °F 47.2 °F 30.07 in SW 0.8 mph 3.5 mph 84 % 0.00 in
05:12 51.8 °F 47.4 °F 30.07 in SSW 1.8 mph 3.5 mph 85 % 0.00 in
05:17 51.7 °F 47.3 °F 30.07 in SSW 3.0 mph 6.9 mph 85 % 0.00 in
05:22 51.7 °F 47.3 °F 30.07 in SSW 0.7 mph 3.5 mph 85 % 0.00 in
05:27 51.7 °F 47.3 °F 30.07 in SW 2.4 mph 2.4 mph 85 % 0.00 in
05:32 51.7 °F 47.3 °F 30.08 in SSW 2.0 mph 6.0 mph 85 % 0.00 in
05:37 51.7 °F 47.3 °F 30.08 in SSW 3.0 mph 6.0 mph 85 % 0.00 in
05:42 51.7 °F 47.3 °F 30.08 in SW 1.7 mph 3.5 mph 85 % 0.00 in
05:47 51.7 °F 47.3 °F 30.08 in SSW 2.0 mph 6.0 mph 85 % 0.00 in
05:52 51.8 °F 47.4 °F 30.09 in SSW 1.0 mph 4.0 mph 85 % 0.00 in
05:57 51.8 °F 47.4 °F 30.09 in SSW 0.2 mph 2.3 mph 85 % 0.00 in
06:02 51.8 °F 47.4 °F 30.09 in SSW 1.0 mph 3.5 mph 85 % 0.00 in
06:03 51.8 °F 47.4 °F 30.09 in SSW 0.1 mph 3.5 mph 85 % 0.00 in
06:08 51.8 °F 47.4 °F 30.09 in SSW 0.5 mph   85 % 0.00 in
06:13 51.8 °F 47.4 °F 30.09 in Calm   1.2 mph 85 % 0.00 in
06:18 51.8 °F 47.4 °F 30.09 in Calm     85 % 0.00 in
06:23 51.8 °F 47.4 °F 30.09 in Calm     85 % 0.00 in
06:28 51.7 °F 47.0 °F 30.09 in Calm   2.3 mph 84 % 0.00 in
06:33 51.6 °F 46.9 °F 30.09 in Calm   1.2 mph 84 % 0.00 in
06:38 51.5 °F 46.8 °F 30.09 in SSW 0.2 mph 1.2 mph 84 % 0.00 in
06:43 51.4 °F 47.0 °F 30.09 in Calm     85 % 0.00 in
06:48 51.4 °F 47.0 °F 30.09 in Calm     85 % 0.00 in
06:53 51.4 °F 47.4 °F 30.09 in West 0.5 mph 3.5 mph 86 % 0.00 in
06:58 51.4 °F 47.4 °F 30.10 in Calm     86 % 0.00 in
07:03 51.5 °F 47.5 °F 30.10 in Calm     86 % 0.00 in
07:08 51.7 °F 47.6 °F 30.10 in Calm     86 % 0.00 in
07:13 51.9 °F 48.2 °F 30.11 in Calm     87 % 0.00 in
07:18 52.1 °F 48.0 °F 30.11 in WSW 0.7 mph 4.0 mph 86 % 0.00 in
07:23 52.5 °F 48.7 °F 30.11 in Calm     87 % 0.00 in
07:28 52.9 °F 49.1 °F 30.10 in SW 2.3 mph 4.0 mph 87 % 0.00 in
07:33 53.4 °F 49.3 °F 30.10 in South 1.4 mph 3.5 mph 86 % 0.00 in
07:39 53.9 °F 49.5 °F 30.10 in South 0.1 mph 1.2 mph 85 % 0.00 in
07:44 54.6 °F 49.9 °F 30.10 in SW 1.2 mph 5.8 mph 84 % 0.00 in
07:49 55.1 °F 50.0 °F 30.11 in SW 3.2 mph 3.5 mph 83 % 0.00 in
07:54 55.7 °F 50.3 °F 30.11 in WSW 2.1 mph 5.8 mph 82 % 0.00 in
07:59 56.3 °F 50.2 °F 30.11 in WSW 4.8 mph 8.1 mph 80 % 0.00 in
08:04 57.1 °F 50.3 °F 30.11 in SSW 3.4 mph 6.9 mph 78 % 0.00 in
08:09 57.8 °F 50.6 °F 30.11 in SW 1.7 mph 5.8 mph 77 % 0.00 in
08:19 59.2 °F 51.3 °F 30.11 in SW 3.9 mph 6.9 mph 75 % 0.00 in
08:24 59.9 °F 51.6 °F 30.11 in SW 5.1 mph 7.0 mph 74 % 0.00 in
08:29 60.5 °F 51.4 °F 30.11 in SW 4.2 mph 8.1 mph 72 % 0.00 in
08:34 61.1 °F 51.6 °F 30.11 in SW 3.2 mph 4.6 mph 71 % 0.00 in
08:39 61.7 °F 51.8 °F 30.11 in SW 4.1 mph 6.9 mph 70 % 0.00 in
08:44 62.2 °F 52.3 °F 30.11 in WSW 5.1 mph 8.0 mph 70 % 0.00 in
08:50 62.8 °F 52.9 °F 30.11 in SSW 3.3 mph 4.6 mph 70 % 0.00 in
08:55 63.5 °F 52.7 °F 30.10 in South 3.5 mph 5.8 mph 68 % 0.00 in
09:00 64.2 °F 53.8 °F 30.10 in SW 3.0 mph 7.0 mph 69 % 0.00 in
09:05 65.0 °F 52.5 °F 30.11 in South 5.4 mph 9.2 mph 64 % 0.00 in
09:10 65.5 °F 53.0 °F 30.11 in SSW 7.1 mph 11.0 mph 64 % 0.00 in
09:15 65.9 °F 52.5 °F 30.11 in SSW 5.5 mph 10.4 mph 62 % 0.00 in
09:20 66.3 °F 52.9 °F 30.12 in SW 4.3 mph 8.1 mph 62 % 0.00 in
09:25 66.6 °F 53.2 °F 30.12 in SW 2.9 mph 4.6 mph 62 % 0.00 in
09:30 67.0 °F 53.1 °F 30.12 in WNW 0.9 mph 2.3 mph 61 % 0.00 in
09:35 67.4 °F 52.6 °F 30.12 in WSW 5.3 mph 7.0 mph 59 % 0.00 in
09:40 67.7 °F 52.9 °F 30.12 in West 2.1 mph 9.2 mph 59 % 0.00 in
09:45 67.9 °F 53.0 °F 30.12 in NW 2.4 mph 5.8 mph 59 % 0.00 in
09:50 67.7 °F 51.9 °F 30.12 in WNW 3.1 mph 6.0 mph 57 % 0.00 in
09:55 66.8 °F 51.1 °F 30.12 in NW 2.6 mph 3.5 mph 57 % 0.00 in
10:00 65.4 °F 50.7 °F 30.12 in NW 2.9 mph 5.0 mph 59 % 0.00 in
10:05 63.9 °F 51.1 °F 30.12 in NW 0.7 mph 2.3 mph 63 % 0.00 in
10:11 63.8 °F 51.8 °F 30.12 in NNW 1.1 mph 3.5 mph 65 % 0.00 in
10:16 63.4 °F 51.0 °F 30.12 in ENE 1.6 mph 2.3 mph 64 % 0.00 in
10:21 63.1 °F 51.6 °F 30.12 in ENE 2.0 mph 3.5 mph 66 % 0.00 in
10:26 63.2 °F 52.1 °F 30.12 in NNE 1.4 mph 3.5 mph 67 % 0.00 in
10:31 62.9 °F 51.0 °F 30.12 in ENE 2.4 mph 3.5 mph 65 % 0.00 in
10:36 62.0 °F 50.1 °F 30.11 in ENE 2.0 mph 3.5 mph 65 % 0.00 in
10:41 61.8 °F 51.1 °F 30.11 in ENE 1.2 mph 2.3 mph 68 % 0.00 in
10:46 61.8 °F 51.9 °F 30.12 in ENE 2.3 mph 3.5 mph 70 % 0.00 in
10:51 62.6 °F 52.3 °F 30.12 in NE 1.2 mph 3.5 mph 69 % 0.00 in
10:56 63.0 °F 51.9 °F 30.11 in ENE 1.8 mph 3.5 mph 67 % 0.00 in
11:01 62.7 °F 51.2 °F 30.11 in NNE 3.7 mph 4.6 mph 66 % 0.00 in
11:06 63.5 °F 52.7 °F 30.11 in NNE 1.8 mph 3.0 mph 68 % 0.00 in
11:11 64.6 °F 53.0 °F 30.11 in NE 1.5 mph 3.5 mph 66 % 0.00 in
11:16 64.7 °F 51.8 °F 30.11 in ENE 1.7 mph 3.5 mph 63 % 0.00 in
11:21 65.3 °F 53.2 °F 30.11 in NNE 0.4 mph 2.3 mph 65 % 0.00 in
11:26 66.3 °F 54.6 °F 30.11 in NE 1.9 mph 3.5 mph 66 % 0.00 in
11:31 66.3 °F 52.4 °F 30.10 in ENE 2.5 mph 3.5 mph 61 % 0.00 in
11:36 66.7 °F 53.3 °F 30.10 in ENE 2.9 mph 4.0 mph 62 % 0.00 in
11:41 66.2 °F 52.8 °F 30.10 in ENE 1.3 mph 2.3 mph 62 % 0.00 in
11:46 66.7 °F 54.1 °F 30.10 in NE 1.5 mph 3.5 mph 64 % 0.00 in
11:51 66.5 °F 52.6 °F 30.10 in NE 1.7 mph 3.5 mph 61 % 0.00 in
11:56 67.1 °F 53.6 °F 30.10 in ENE 2.7 mph 3.5 mph 62 % 0.00 in
12:02 67.1 °F 54.1 °F 30.09 in NE 1.4 mph 3.5 mph 63 % 0.00 in
12:07 67.3 °F 53.8 °F 30.09 in NE 1.6 mph 3.5 mph 62 % 0.00 in
12:12 67.9 °F 54.0 °F 30.09 in ENE 1.3 mph 2.3 mph 61 % 0.00 in
12:17 67.9 °F 53.5 °F 30.09 in NE 2.4 mph 3.5 mph 60 % 0.00 in
12:22 68.4 °F 54.4 °F 30.08 in ENE 1.3 mph 3.0 mph 61 % 0.00 in
12:27 68.4 °F 55.3 °F 30.09 in NNE 1.2 mph 3.5 mph 63 % 0.00 in
12:32 69.3 °F 56.2 °F 30.08 in NNE 1.4 mph 2.3 mph 63 % 0.00 in
12:37 69.6 °F 53.7 °F 30.08 in ENE 1.5 mph 3.5 mph 57 % 0.00 in
12:42 69.8 °F 55.3 °F 30.08 in NE 2.4 mph 3.5 mph 60 % 0.00 in
12:47 70.8 °F 55.3 °F 30.08 in NE 2.1 mph 3.0 mph 58 % 0.00 in
12:52 70.5 °F 54.5 °F 30.08 in ENE 2.2 mph 4.6 mph 57 % 0.00 in
12:57 70.0 °F 54.5 °F 30.08 in ENE 2.7 mph 3.5 mph 58 % 0.00 in
13:02 70.0 °F 55.0 °F 30.08 in NE 1.6 mph 3.5 mph 59 % 0.00 in
13:07 70.0 °F 54.5 °F 30.08 in NE 2.3 mph 3.5 mph 58 % 0.00 in
13:12 70.6 °F 56.1 °F 30.08 in NE 1.0 mph 3.0 mph 60 % 0.00 in
13:17 71.1 °F 56.0 °F 30.08 in ENE 2.0 mph 4.0 mph 59 % 0.00 in
13:22 71.2 °F 55.6 °F 30.08 in ENE 1.0 mph 3.0 mph 58 % 0.00 in
13:27 71.5 °F 55.9 °F 30.07 in ENE 1.0 mph 3.0 mph 58 % 0.00 in
13:36 73.0 °F 57.3 °F 30.07 in South 5.8 mph 11.5 mph 58 % 0.00 in
13:41 74.5 °F 56.8 °F 30.06 in SE 6.7 mph 9.2 mph 54 % 0.00 in
13:46 75.5 °F 57.7 °F 30.06 in South 6.3 mph 10.4 mph 54 % 0.00 in
13:51 76.5 °F 57.0 °F 30.06 in SSE 4.1 mph 8.1 mph 51 % 0.00 in
13:56 77.1 °F 57.0 °F 30.07 in South 6.2 mph 10.4 mph 50 % 0.00 in
14:01 77.4 °F 56.7 °F 30.06 in South 3.7 mph 9.2 mph 49 % 0.00 in
14:06 78.1 °F 56.8 °F 30.06 in South 4.9 mph 8.1 mph 48 % 0.00 in
14:11 78.8 °F 55.7 °F 30.06 in SSE 4.2 mph 8.1 mph 45 % 0.00 in
14:17 79.0 °F 57.0 °F 30.06 in South 2.0 mph 3.5 mph 47 % 0.00 in
14:22 79.1 °F 56.5 °F 30.06 in South 1.9 mph 3.5 mph 46 % 0.00 in
14:27 79.7 °F 56.5 °F 30.06 in SW 2.7 mph 7.0 mph 45 % 0.00 in
14:32 79.8 °F 55.3 °F 30.06 in SE 7.9 mph 12.7 mph 43 % 0.00 in
14:37 79.8 °F 56.6 °F 30.05 in SE 2.1 mph 4.6 mph 45 % 0.00 in
14:42 80.0 °F 56.7 °F 30.05 in SSE 1.7 mph 5.0 mph 45 % 0.00 in
14:47 80.3 °F 55.8 °F 30.05 in South 8.6 mph 12.7 mph 43 % 0.00 in
14:52 79.3 °F 56.1 °F 30.05 in South 4.1 mph 10.4 mph 45 % 0.00 in
14:57 78.8 °F 55.7 °F 30.04 in South 4.4 mph 6.9 mph 45 % 0.00 in
15:02 78.8 °F 55.0 °F 30.04 in South 4.4 mph 6.0 mph 44 % 0.00 in
15:07 78.3 °F 55.2 °F 30.04 in South 5.1 mph 11.5 mph 45 % 0.00 in
15:12 78.3 °F 55.2 °F 30.05 in South 5.3 mph 10.4 mph 45 % 0.00 in
15:17 78.4 °F 54.7 °F 30.04 in SSW 1.5 mph 3.5 mph 44 % 0.00 in
15:22 78.6 °F 56.1 °F 30.04 in SSE 4.1 mph 6.9 mph 46 % 0.00 in
15:27 78.6 °F 56.7 °F 30.04 in South 5.0 mph 7.0 mph 47 % 0.00 in
15:32 78.5 °F 56.0 °F 30.04 in SE 4.4 mph 6.9 mph 46 % 0.00 in
15:37 78.5 °F 55.4 °F 30.04 in SSE 5.6 mph 8.1 mph 45 % 0.00 in
15:42 78.3 °F 56.4 °F 30.04 in SSE 2.6 mph 6.9 mph 47 % 0.00 in
15:48 78.4 °F 56.5 °F 30.04 in SSW 2.7 mph 4.0 mph 47 % 0.00 in
15:53 78.5 °F 55.4 °F 30.04 in SSW 2.3 mph 10.4 mph 45 % 0.00 in
15:58 78.3 °F 55.2 °F 30.04 in SSW 7.0 mph 12.7 mph 45 % 0.00 in
16:03 78.2 °F 56.3 °F 30.05 in South 1.8 mph 4.6 mph 47 % 0.00 in
16:08 77.9 °F 55.5 °F 30.05 in SSW 4.1 mph 10.4 mph 46 % 0.00 in
16:13 77.5 °F 55.7 °F 30.05 in SW 4.9 mph 6.9 mph 47 % 0.00 in
16:18 77.1 °F 55.3 °F 30.04 in SW 6.1 mph 11.5 mph 47 % 0.00 in
16:28 76.3 °F 55.7 °F 30.04 in SSW 4.5 mph 9.0 mph 49 % 0.00 in
16:33 76.0 °F 55.5 °F 30.05 in South 3.1 mph 5.8 mph 49 % 0.00 in
16:38 75.7 °F 55.7 °F 30.05 in South 2.1 mph 4.6 mph 50 % 0.00 in
16:43 75.2 °F 55.8 °F 30.04 in South 2.4 mph 6.9 mph 51 % 0.00 in
16:48 75.2 °F 56.9 °F 30.04 in SSE 1.0 mph 4.6 mph 53 % 0.00 in
16:53 75.3 °F 57.0 °F 30.04 in SSW 3.1 mph 4.6 mph 53 % 0.00 in
16:58 75.4 °F 56.5 °F 30.04 in South 5.0 mph 10.4 mph 52 % 0.00 in
17:03 75.2 °F 56.9 °F 30.04 in SSW 4.1 mph 8.1 mph 53 % 0.00 in
17:08 74.9 °F 56.1 °F 30.04 in South 3.6 mph 6.9 mph 52 % 0.00 in
17:13 74.5 °F 56.2 °F 30.04 in South 4.7 mph 6.9 mph 53 % 0.00 in
17:18 74.2 °F 56.5 °F 30.04 in North 5.2 mph 6.9 mph 54 % 0.00 in
17:23 73.7 °F 56.0 °F 30.04 in SSW 3.7 mph 6.9 mph 54 % 0.00 in
17:29 73.4 °F 55.7 °F 30.04 in South 1.1 mph 2.3 mph 54 % 0.00 in
17:34 73.2 °F 56.1 °F 30.04 in SW 2.8 mph 4.0 mph 55 % 0.00 in
17:39 73.0 °F 55.9 °F 30.05 in SSE 2.6 mph 4.6 mph 55 % 0.00 in
17:44 72.7 °F 56.1 °F 30.05 in SSW 3.6 mph 9.2 mph 56 % 0.00 in
17:49 72.4 °F 55.8 °F 30.05 in SSE 4.1 mph 6.0 mph 56 % 0.00 in
17:54 72.0 °F 55.9 °F 30.04 in South 2.3 mph 3.5 mph 57 % 0.00 in
17:59 71.7 °F 55.7 °F 30.04 in South 4.3 mph 6.0 mph 57 % 0.00 in
18:04 71.1 °F 55.6 °F 30.04 in South 6.5 mph 10.4 mph 58 % 0.00 in
18:09 70.4 °F 55.4 °F 30.04 in SSW 4.5 mph 9.2 mph 59 % 0.00 in
18:14 70.1 °F 55.6 °F 30.04 in South 4.2 mph 9.2 mph 60 % 0.00 in
18:19 69.9 °F 55.4 °F 30.04 in SW 3.6 mph 9.2 mph 60 % 0.00 in
18:24 69.6 °F 55.6 °F 30.04 in SSW 4.2 mph 6.9 mph 61 % 0.00 in
18:29 69.2 °F 55.2 °F 30.04 in SSW 7.2 mph 11.5 mph 61 % 0.00 in
18:34 68.9 °F 54.9 °F 30.04 in SSW 4.5 mph 9.2 mph 61 % 0.00 in
18:39 68.7 °F 55.2 °F 30.04 in South 1.5 mph 4.6 mph 62 % 0.00 in
18:45 68.5 °F 55.0 °F 30.04 in South 3.6 mph 6.9 mph 62 % 0.00 in
18:50 68.3 °F 55.2 °F 30.04 in SSW 4.6 mph 9.2 mph 63 % 0.00 in
18:55 67.9 °F 54.8 °F 30.03 in SW 5.8 mph 8.1 mph 63 % 0.00 in
19:00 67.6 °F 55.0 °F 30.03 in South 6.5 mph 10.0 mph 64 % 0.00 in
19:05 67.1 °F 54.5 °F 30.03 in South 6.2 mph 10.4 mph 64 % 0.00 in
19:10 66.6 °F 54.5 °F 30.03 in South 6.1 mph 11.5 mph 65 % 0.00 in
19:15 66.2 °F 54.5 °F 30.03 in SSW 6.1 mph 9.2 mph 66 % 0.00 in
19:20 65.8 °F 54.1 °F 30.03 in SSW 6.7 mph 11.5 mph 66 % 0.00 in
19:25 65.4 °F 54.2 °F 30.03 in South 6.4 mph 10.4 mph 67 % 0.00 in
19:30 65.0 °F 54.2 °F 30.03 in South 5.0 mph 11.5 mph 68 % 0.00 in
19:35 64.7 °F 53.9 °F 30.03 in SSW 8.0 mph 12.0 mph 68 % 0.00 in
19:40 64.3 °F 53.9 °F 30.03 in South 9.0 mph 13.0 mph 69 % 0.00 in
19:45 63.9 °F 53.9 °F 30.03 in South 6.3 mph 9.2 mph 70 % 0.00 in
19:50 63.7 °F 53.7 °F 30.03 in South 5.7 mph 9.0 mph 70 % 0.00 in
19:55 63.4 °F 53.8 °F 30.03 in South 5.7 mph 10.4 mph 71 % 0.00 in
20:00 63.2 °F 53.6 °F 30.03 in SW 6.2 mph 10.4 mph 71 % 0.00 in
20:05 63.0 °F 53.8 °F 30.03 in South 6.2 mph 11.0 mph 72 % 0.00 in
20:07 62.9 °F 53.7 °F 30.03 in South 5.9 mph 11.5 mph 72 % 0.00 in
20:12 62.6 °F 53.4 °F 30.03 in SSW 6.3 mph 11.5 mph 72 % 0.00 in
20:17 62.3 °F 53.5 °F 30.03 in South 8.0 mph 12.0 mph 73 % 0.00 in
20:22 62.0 °F 53.3 °F 30.03 in South 5.0 mph 12.0 mph 73 % 0.00 in
20:27 61.8 °F 53.4 °F 30.03 in South 6.0 mph 14.0 mph 74 % 0.00 in
20:32 61.5 °F 53.1 °F 30.04 in South 6.0 mph 12.0 mph 74 % 0.00 in
20:37 61.2 °F 53.2 °F 30.04 in South 6.0 mph 10.0 mph 75 % 0.00 in
20:42 60.9 °F 52.9 °F 30.04 in South 5.0 mph 10.0 mph 75 % 0.00 in
20:47 60.7 °F 52.7 °F 30.04 in South 3.0 mph 7.0 mph 75 % 0.00 in
20:52 60.5 °F 52.9 °F 30.05 in SSW 2.0 mph 9.0 mph 76 % 0.00 in
20:57 60.3 °F 52.7 °F 30.04 in SSW 4.4 mph 4.4 mph 76 % 0.00 in
21:02 60.1 °F 52.5 °F 30.05 in WSW 3.4 mph 7.0 mph 76 % 0.00 in
21:07 59.9 °F 52.3 °F 30.05 in South 2.4 mph 4.6 mph 76 % 0.00 in
21:12 59.6 °F 52.4 °F 30.05 in SW 1.9 mph 3.5 mph 77 % 0.00 in
21:18 59.5 °F 52.3 °F 30.05 in SW 1.9 mph 4.6 mph 77 % 0.00 in
21:23 59.3 °F 52.1 °F 30.05 in SW 0.1 mph 4.6 mph 77 % 0.00 in
21:28 59.2 °F 52.3 °F 30.05 in SE 0.2 mph 1.2 mph 78 % 0.00 in
21:33 59.1 °F 52.2 °F 30.06 in South 0.1 mph 1.2 mph 78 % 0.00 in
21:38 59.0 °F 52.1 °F 30.06 in Calm   1.2 mph 78 % 0.00 in
21:43 58.9 °F 52.1 °F 30.06 in SE 1.4 mph 4.6 mph 78 % 0.00 in
21:48 58.8 °F 52.0 °F 30.06 in SW 1.8 mph 5.8 mph 78 % 0.00 in
21:53 58.7 °F 52.2 °F 30.06 in SW 2.2 mph 3.5 mph 79 % 0.00 in
21:58 58.6 °F 52.1 °F 30.06 in SW 0.2 mph 1.2 mph 79 % 0.00 in
22:03 58.5 °F 52.0 °F 30.06 in SSW 3.2 mph 6.9 mph 79 % 0.00 in
22:08 58.4 °F 51.9 °F 30.06 in SSW 2.1 mph 3.5 mph 79 % 0.00 in
22:13 58.4 °F 51.9 °F 30.05 in SW 0.4 mph 1.2 mph 79 % 0.00 in
22:18 58.3 °F 51.8 °F 30.06 in SW 1.9 mph 3.5 mph 79 % 0.00 in
22:21 58.3 °F 51.8 °F 30.06 in SSW 2.5 mph 5.0 mph 79 % 0.00 in
22:26 58.2 °F 52.1 °F 30.06 in SW 1.6 mph 5.0 mph 80 % 0.00 in
22:31 58.2 °F 52.1 °F 30.06 in SW 0.2 mph 3.5 mph 80 % 0.00 in
22:36 58.1 °F 52.0 °F 30.06 in Calm   1.2 mph 80 % 0.00 in
22:41 58.1 °F 52.0 °F 30.06 in Calm     80 % 0.00 in
22:46 58.0 °F 51.9 °F 30.06 in WSW 1.2 mph 3.0 mph 80 % 0.00 in
22:51 57.9 °F 51.8 °F 30.06 in SW 2.0 mph 3.5 mph 80 % 0.00 in
22:56 57.8 °F 51.7 °F 30.06 in WSW 2.8 mph 4.6 mph 80 % 0.00 in
23:01 57.7 °F 51.6 °F 30.06 in SW 1.8 mph 4.0 mph 80 % 0.00 in
23:07 57.6 °F 51.8 °F 30.06 in SSW 2.0 mph 4.0 mph 81 % 0.00 in
23:12 57.5 °F 51.7 °F 30.06 in SSW 1.2 mph 3.5 mph 81 % 0.00 in
23:17 57.4 °F 51.6 °F 30.06 in Calm   1.2 mph 81 % 0.00 in
23:22 57.3 °F 51.2 °F 30.07 in Calm     80 % 0.00 in
23:27 57.2 °F 51.1 °F 30.07 in NNE 2.9 mph 3.5 mph 80 % 0.00 in
23:32 57.1 °F 51.3 °F 30.08 in North 0.7 mph 2.3 mph 81 % 0.00 in
23:37 56.9 °F 51.1 °F 30.08 in Calm     81 % 0.00 in
23:42 56.8 °F 51.0 °F 30.08 in North 0.5 mph 1.2 mph 81 % 0.00 in
23:47 56.5 °F 50.7 °F 30.08 in Calm     81 % 0.00 in
23:52 56.3 °F 50.5 °F 30.08 in Calm     81 % 0.00 in
23:57 56.1 °F 50.3 °F 30.08 in Calm     81 % 0.00 in
Crab Meadow Weather
Compliments of Weather Underground - 3 mb

Script developed by  Jim McMurry - jmcmurry@mwt.net Adapted for the template by  Wim van der Kuil - Leuven-Template.eu

Recycling: If every American home replaced just one light bulb with an ENERGY STAR qualified bulb, we would save enough energy to light more than 3 million homes for a year, more than $600 million in annual energy costs, and prevent greenhouse gases equivalent to the emissions of more than 800,000 cars.